Terminal Aerodrome Forecast
Issued by NWS

Home | Current Version | Previous Version | Text Only | Print | Product List | Glossary On
Versions: 1 2 3 4 5 6 7 8 9 10 11 12 13
205
FTPA31 PHFO 262341
TAFHOG
TAF
PHOG 262341Z 2700/2724 04013KT P6SM SCT030 SCT050 BKN250
     FM270500 06007KT P6SM FEW030 SCT040 SCT250
     FM272100 04013KT P6SM SCT030 SCT050
      AMD LTD TO VIS AND WIND 2709/2716=

USA.gov is the U.S. government's official web portal to all federal, state and local government web resources and services.